Station Historical Data
Daily Summary for January 12, 2017 Units:  Both    English   Metric
« Previous Day
Next Day »
Daily Weekly Monthly Yearly Custom
  High: Low: Average:
Temperature: 57.3 °F /  14.1 °C 33.1 °F /  0.6 °C 44.8 °F /  7.1 °C
Dew Point: 52.5 °F /  11.4 °C 29.1 °F /  -1.6 °C 41.9 °F /  5.5 °C
Humidity: 95% 82% 90%
Wind Speed: 18.0mph /  29km/h - 6.3mph /  10.1km/h
Wind Gust: 27.0mph /  43.5km/h - -
Wind- - SW
Pressure: 30.26 in /  1024.6 hPa 29.70 in /  1005.6 hPa -
Precipitation: 0.00 in /  0 mm    
Historical Graphs
 
 
Tabular Data for January 12, 2017
Time Temperature Dew Point Pressure Wind Wind Speed Wind Gust Humidity Rainfall Rate (Hourly)
00:04 49.9 °F /  9.9 °C 45.6 °F /  7.6 °C 29.77in /  1008hPa South 8.0mph /  12.9km/h 16.0mph /  25.7km/h 85% 0.03in /  0.76mm
00:09 50.1 °F /  10.1 °C 45.5 °F /  7.5 °C 29.77in /  1008hPa SSW 7.0mph /  11.3km/h 13.0mph /  20.9km/h 84% 0.03in /  0.76mm
00:14 50.2 °F /  10.1 °C 45.9 °F /  7.7 °C 29.77in /  1008hPa SSW 7.0mph /  11.3km/h 15.0mph /  24.1km/h 85% 0.03in /  0.76mm
00:19 50.2 °F /  10.1 °C 45.9 °F /  7.7 °C 29.76in /  1007.7hPa South 8.0mph /  12.9km/h 15.0mph /  24.1km/h 85% 0.03in /  0.76mm
00:24 50.3 °F /  10.2 °C 46.0 °F /  7.8 °C 29.76in /  1007.7hPa South 8.0mph /  12.9km/h 19.0mph /  30.6km/h 85% 0.03in /  0.76mm
00:29 50.4 °F /  10.2 °C 46.1 °F /  7.8 °C 29.76in /  1007.7hPa South 9.0mph /  14.5km/h 19.0mph /  30.6km/h 85% 0.03in /  0.76mm
00:34 50.6 °F /  10.3 °C 46.3 °F /  7.9 °C 29.75in /  1007.3hPa SSW 7.0mph /  11.3km/h 19.0mph /  30.6km/h 85% 0.02in /  0.51mm
00:39 51.0 °F /  10.6 °C 46.3 °F /  7.9 °C 29.74in /  1007hPa SW 10.0mph /  16.1km/h 19.0mph /  30.6km/h 84% 0.01in /  0.25mm
00:44 51.3 °F /  10.7 °C 46.6 °F /  8.1 °C 29.74in /  1007hPa South 9.0mph /  14.5km/h 13.0mph /  20.9km/h 84% 0.00in /  0mm
00:49 51.5 °F /  10.8 °C 46.8 °F /  8.2 °C 29.74in /  1007hPa South 8.0mph /  12.9km/h 18.0mph /  29km/h 84% 0.00in /  0mm
00:54 52.0 °F /  11.1 °C 47.3 °F /  8.5 °C 29.73in /  1006.7hPa South 9.0mph /  14.5km/h 18.0mph /  29km/h 84% 0.00in /  0mm
00:59 52.2 °F /  11.2 °C 47.5 °F /  8.6 °C 29.73in /  1006.7hPa SW 8.0mph /  12.9km/h 17.0mph /  27.4km/h 84% 0.00in /  0mm
01:04 52.5 °F /  11.4 °C 47.8 °F /  8.8 °C 29.73in /  1006.7hPa SSE 11.0mph /  17.7km/h 17.0mph /  27.4km/h 84% 0.00in /  0mm
01:09 52.7 °F /  11.5 °C 47.7 °F /  8.7 °C 29.72in /  1006.3hPa South 6.0mph /  9.7km/h 16.0mph /  25.7km/h 83% 0.00in /  0mm
01:14 53.0 °F /  11.7 °C 48.3 °F /  9.1 °C 29.72in /  1006.3hPa SSW 7.0mph /  11.3km/h 22.0mph /  35.4km/h 84% 0.00in /  0mm
01:19 53.2 °F /  11.8 °C 48.2 °F /  9 °C 29.72in /  1006.3hPa SSE 5.0mph /  8km/h 21.0mph /  33.8km/h 83% 0.00in /  0mm
01:24 53.2 °F /  11.8 °C 48.5 °F /  9.2 °C 29.72in /  1006.3hPa SSW 9.0mph /  14.5km/h 21.0mph /  33.8km/h 84% 0.00in /  0mm
01:29 53.4 °F /  11.9 °C 48.7 °F /  9.3 °C 29.72in /  1006.3hPa SSW 9.0mph /  14.5km/h 22.0mph /  35.4km/h 84% 0.01in /  0.25mm
01:34 53.2 °F /  11.8 °C 48.8 °F /  9.3 °C 29.72in /  1006.3hPa SSW 8.0mph /  12.9km/h 22.0mph /  35.4km/h 85% 0.01in /  0.25mm
01:39 53.3 °F /  11.8 °C 49.2 °F /  9.6 °C 29.72in /  1006.3hPa SSW 9.0mph /  14.5km/h 19.0mph /  30.6km/h 86% 0.01in /  0.25mm
01:44 53.5 °F /  11.9 °C 49.1 °F /  9.5 °C 29.71in /  1006hPa SSW 10.0mph /  16.1km/h 24.0mph /  38.6km/h 85% 0.02in /  0.51mm
01:49 53.9 °F /  12.2 °C 49.5 °F /  9.7 °C 29.71in /  1006hPa South 10.0mph /  16.1km/h 20.0mph /  32.2km/h 85% 0.02in /  0.51mm
01:54 53.9 °F /  12.2 °C 49.5 °F /  9.7 °C 29.71in /  1006hPa South 8.0mph /  12.9km/h 24.0mph /  38.6km/h 85% 0.02in /  0.51mm
01:59 53.9 °F /  12.2 °C 49.8 °F /  9.9 °C 29.71in /  1006hPa SSW 10.0mph /  16.1km/h 24.0mph /  38.6km/h 86% 0.02in /  0.51mm
02:04 53.9 °F /  12.2 °C 49.8 °F /  9.9 °C 29.71in /  1006hPa SSW 11.0mph /  17.7km/h 22.0mph /  35.4km/h 86% 0.02in /  0.51mm
02:09 53.9 °F /  12.2 °C 49.8 °F /  9.9 °C 29.71in /  1006hPa SSW 10.0mph /  16.1km/h 22.0mph /  35.4km/h 86% 0.02in /  0.51mm
02:14 54.0 °F /  12.2 °C 49.9 °F /  9.9 °C 29.71in /  1006hPa South 7.0mph /  11.3km/h 17.0mph /  27.4km/h 86% 0.02in /  0.51mm
02:19 54.1 °F /  12.3 °C 49.7 °F /  9.8 °C 29.70in /  1005.6hPa SSW 10.0mph /  16.1km/h 19.0mph /  30.6km/h 85% 0.02in /  0.51mm
02:24 54.1 °F /  12.3 °C 49.7 °F /  9.8 °C 29.71in /  1006hPa South 11.0mph /  17.7km/h 17.0mph /  27.4km/h 85% 0.02in /  0.51mm
02:29 54.3 °F /  12.4 °C 49.9 °F /  9.9 °C 29.70in /  1005.6hPa SSW 7.0mph /  11.3km/h 19.0mph /  30.6km/h 85% 0.01in /  0.25mm
02:34 54.5 °F /  12.5 °C 49.8 °F /  9.9 °C 29.70in /  1005.6hPa SSW 10.0mph /  16.1km/h 22.0mph /  35.4km/h 84% 0.01in /  0.25mm
02:39 54.5 °F /  12.5 °C 49.8 °F /  9.9 °C 29.71in /  1006hPa SSW 9.0mph /  14.5km/h 22.0mph /  35.4km/h 84% 0.01in /  0.25mm
02:44 54.6 °F /  12.6 °C 49.9 °F /  9.9 °C 29.71in /  1006hPa SSW 8.0mph /  12.9km/h 18.0mph /  29km/h 84% 0.00in /  0mm
02:49 54.8 °F /  12.7 °C 50.1 °F /  10.1 °C 29.70in /  1005.6hPa SSW 8.0mph /  12.9km/h 18.0mph /  29km/h 84% 0.00in /  0mm
02:54 55.1 °F /  12.8 °C 50.4 °F /  10.2 °C 29.70in /  1005.6hPa South 7.0mph /  11.3km/h 16.0mph /  25.7km/h 84% 0.00in /  0mm
02:59 55.3 °F /  12.9 °C 50.2 °F /  10.1 °C 29.70in /  1005.6hPa SSW 9.0mph /  14.5km/h 17.0mph /  27.4km/h 83% 0.00in /  0mm
03:04 55.6 °F /  13.1 °C 50.5 °F /  10.3 °C 29.70in /  1005.6hPa SSW 5.0mph /  8km/h 17.0mph /  27.4km/h 83% 0.00in /  0mm
03:09 56.0 °F /  13.3 °C 50.9 °F /  10.5 °C 29.70in /  1005.6hPa SSW 10.0mph /  16.1km/h 24.0mph /  38.6km/h 83% 0.00in /  0mm
03:14 56.2 °F /  13.4 °C 51.1 °F /  10.6 °C 29.70in /  1005.6hPa SSW 10.0mph /  16.1km/h 24.0mph /  38.6km/h 83% 0.00in /  0mm
03:19 56.2 °F /  13.4 °C 51.1 °F /  10.6 °C 29.70in /  1005.6hPa SSW 11.0mph /  17.7km/h 23.0mph /  37km/h 83% 0.00in /  0mm
03:24 56.1 °F /  13.4 °C 51.0 °F /  10.6 °C 29.70in /  1005.6hPa SW 4.0mph /  6.4km/h 19.0mph /  30.6km/h 83% 0.00in /  0mm
03:29 56.1 °F /  13.4 °C 51.0 °F /  10.6 °C 29.71in /  1006hPa South 10.0mph /  16.1km/h 17.0mph /  27.4km/h 83% 0.00in /  0mm
03:34 56.3 °F /  13.5 °C 51.2 °F /  10.7 °C 29.70in /  1005.6hPa SW 10.0mph /  16.1km/h 16.0mph /  25.7km/h 83% 0.00in /  0mm
03:39 56.4 °F /  13.6 °C 51.3 °F /  10.7 °C 29.70in /  1005.6hPa SSW 9.0mph /  14.5km/h 19.0mph /  30.6km/h 83% 0.00in /  0mm
03:44 56.6 °F /  13.7 °C 51.5 °F /  10.8 °C 29.71in /  1006hPa SSW 9.0mph /  14.5km/h 19.0mph /  30.6km/h 83% 0.00in /  0mm
03:49 56.7 °F /  13.7 °C 51.3 °F /  10.7 °C 29.71in /  1006hPa SSW 9.0mph /  14.5km/h 18.0mph /  29km/h 82% 0.00in /  0mm
03:54 56.8 °F /  13.8 °C 51.4 °F /  10.8 °C 29.71in /  1006hPa SW 5.0mph /  8km/h 19.0mph /  30.6km/h 82% 0.00in /  0mm
03:59 56.8 °F /  13.8 °C 51.4 °F /  10.8 °C 29.71in /  1006hPa SW 12.0mph /  19.3km/h 18.0mph /  29km/h 82% 0.00in /  0mm
04:04 56.8 °F /  13.8 °C 51.4 °F /  10.8 °C 29.71in /  1006hPa SW 10.0mph /  16.1km/h 17.0mph /  27.4km/h 82% 0.00in /  0mm
04:09 56.8 °F /  13.8 °C 51.4 °F /  10.8 °C 29.71in /  1006hPa SW 8.0mph /  12.9km/h 17.0mph /  27.4km/h 82% 0.00in /  0mm
04:14 56.8 °F /  13.8 °C 51.4 °F /  10.8 °C 29.71in /  1006hPa SW 8.0mph /  12.9km/h 14.0mph /  22.5km/h 82% 0.00in /  0mm
04:19 56.8 °F /  13.8 °C 51.4 °F /  10.8 °C 29.70in /  1005.6hPa SSW 8.0mph /  12.9km/h 18.0mph /  29km/h 82% 0.00in /  0mm
04:24 56.9 °F /  13.8 °C 51.5 °F /  10.8 °C 29.70in /  1005.6hPa SW 9.0mph /  14.5km/h 15.0mph /  24.1km/h 82% 0.00in /  0mm
04:29 57.1 °F /  13.9 °C 51.7 °F /  10.9 °C 29.70in /  1005.6hPa WSW 14.0mph /  22.5km/h 21.0mph /  33.8km/h 82% 0.00in /  0mm
04:34 57.2 °F /  14 °C 52.1 °F /  11.2 °C 29.70in /  1005.6hPa WSW 14.0mph /  22.5km/h 19.0mph /  30.6km/h 83% 0.01in /  0.25mm
04:39 57.3 °F /  14.1 °C 52.5 °F /  11.4 °C 29.70in /  1005.6hPa SW 16.0mph /  25.7km/h 27.0mph /  43.5km/h 84% 0.02in /  0.51mm
04:44 57.1 °F /  13.9 °C 52.3 °F /  11.3 °C 29.70in /  1005.6hPa South 10.0mph /  16.1km/h 20.0mph /  32.2km/h 84% 0.03in /  0.76mm
04:49 56.9 °F /  13.8 °C 52.4 °F /  11.3 °C 29.70in /  1005.6hPa SSW 10.0mph /  16.1km/h 20.0mph /  32.2km/h 85% 0.03in /  0.76mm
04:54 56.8 °F /  13.8 °C 52.3 °F /  11.3 °C 29.71in /  1006hPa SSW 10.0mph /  16.1km/h 21.0mph /  33.8km/h 85% 0.03in /  0.76mm
04:59 56.8 °F /  13.8 °C 52.3 °F /  11.3 °C 29.72in /  1006.3hPa SW 11.0mph /  17.7km/h 22.0mph /  35.4km/h 85% 0.03in /  0.76mm
05:04 56.6 °F /  13.7 °C 52.5 °F /  11.4 °C 29.72in /  1006.3hPa SW 10.0mph /  16.1km/h 25.0mph /  40.2km/h 86% 0.03in /  0.76mm
05:09 56.5 °F /  13.6 °C 52.0 °F /  11.1 °C 29.73in /  1006.7hPa SW 10.0mph /  16.1km/h 25.0mph /  40.2km/h 85% 0.03in /  0.76mm
05:14 56.7 °F /  13.7 °C 51.9 °F /  11.1 °C 29.73in /  1006.7hPa SW 11.0mph /  17.7km/h 25.0mph /  40.2km/h 84% 0.03in /  0.76mm
05:19 56.8 °F /  13.8 °C 52.0 °F /  11.1 °C 29.72in /  1006.3hPa WSW 9.0mph /  14.5km/h 22.0mph /  35.4km/h 84% 0.03in /  0.76mm
05:24 56.8 °F /  13.8 °C 52.0 °F /  11.1 °C 29.73in /  1006.7hPa WSW 13.0mph /  20.9km/h 21.0mph /  33.8km/h 84% 0.04in /  1.02mm
05:29 56.7 °F /  13.7 °C 51.9 °F /  11.1 °C 29.73in /  1006.7hPa SW 11.0mph /  17.7km/h 23.0mph /  37km/h 84% 0.04in /  1.02mm
05:34 56.4 °F /  13.6 °C 51.6 °F /  10.9 °C 29.73in /  1006.7hPa SSE 7.0mph /  11.3km/h 21.0mph /  33.8km/h 84% 0.03in /  0.76mm
05:39 56.1 °F /  13.4 °C 51.7 °F /  10.9 °C 29.74in /  1007hPa South 7.0mph /  11.3km/h 22.0mph /  35.4km/h 85% 0.02in /  0.51mm
05:44 56.0 °F /  13.3 °C 51.6 °F /  10.9 °C 29.73in /  1006.7hPa SW 7.0mph /  11.3km/h 14.0mph /  22.5km/h 85% 0.01in /  0.25mm
05:49 56.2 °F /  13.4 °C 52.1 °F /  11.2 °C 29.74in /  1007hPa SW 10.0mph /  16.1km/h 23.0mph /  37km/h 86% 0.01in /  0.25mm
05:54 56.2 °F /  13.4 °C 51.4 °F /  10.8 °C 29.74in /  1007hPa SW 11.0mph /  17.7km/h 16.0mph /  25.7km/h 84% 0.01in /  0.25mm
05:59 55.7 °F /  13.2 °C 51.3 °F /  10.7 °C 29.74in /  1007hPa SW 10.0mph /  16.1km/h 18.0mph /  29km/h 85% 0.01in /  0.25mm
06:04 55.4 °F /  13 °C 51.0 °F /  10.6 °C 29.74in /  1007hPa SW 9.0mph /  14.5km/h 18.0mph /  29km/h 85% 0.01in /  0.25mm
06:09 55.0 °F /  12.8 °C 50.9 °F /  10.5 °C 29.74in /  1007hPa SW 8.0mph /  12.9km/h 17.0mph /  27.4km/h 86% 0.01in /  0.25mm
06:14 54.7 °F /  12.6 °C 50.9 °F /  10.5 °C 29.75in /  1007.3hPa WSW 9.0mph /  14.5km/h 20.0mph /  32.2km/h 87% 0.01in /  0.25mm
06:19 54.7 °F /  12.6 °C 50.9 °F /  10.5 °C 29.75in /  1007.3hPa SW 10.0mph /  16.1km/h 20.0mph /  32.2km/h 87% 0.01in /  0.25mm
06:24 54.5 °F /  12.5 °C 50.7 °F /  10.4 °C 29.75in /  1007.3hPa WSW 8.0mph /  12.9km/h 18.0mph /  29km/h 87% 0.00in /  0mm
06:29 54.1 °F /  12.3 °C 50.3 °F /  10.2 °C 29.75in /  1007.3hPa SSW 9.0mph /  14.5km/h 16.0mph /  25.7km/h 87% 0.00in /  0mm
06:34 53.4 °F /  11.9 °C 49.6 °F /  9.8 °C 29.75in /  1007.3hPa SW 9.0mph /  14.5km/h 19.0mph /  30.6km/h 87% 0.00in /  0mm
06:39 53.2 °F /  11.8 °C 49.7 °F /  9.8 °C 29.75in /  1007.3hPa SW 5.0mph /  8km/h 17.0mph /  27.4km/h 88% 0.00in /  0mm
06:44 53.3 °F /  11.8 °C 49.8 °F /  9.9 °C 29.76in /  1007.7hPa SSW 12.0mph /  19.3km/h 15.0mph /  24.1km/h 88% 0.00in /  0mm
06:49 53.2 °F /  11.8 °C 49.7 °F /  9.8 °C 29.76in /  1007.7hPa WSW 9.0mph /  14.5km/h 16.0mph /  25.7km/h 88% 0.00in /  0mm
06:54 53.2 °F /  11.8 °C 49.4 °F /  9.7 °C 29.77in /  1008hPa WSW 5.0mph /  8km/h 17.0mph /  27.4km/h 87% 0.00in /  0mm
06:59 53.3 °F /  11.8 °C 49.5 °F /  9.7 °C 29.77in /  1008hPa SW 4.0mph /  6.4km/h 16.0mph /  25.7km/h 87% 0.00in /  0mm
07:04 53.5 °F /  11.9 °C 49.7 °F /  9.8 °C 29.77in /  1008hPa SW 8.0mph /  12.9km/h 16.0mph /  25.7km/h 87% 0.00in /  0mm
07:09 53.6 °F /  12 °C 49.5 °F /  9.7 °C 29.76in /  1007.7hPa SW 9.0mph /  14.5km/h 19.0mph /  30.6km/h 86% 0.00in /  0mm
07:14 53.5 °F /  11.9 °C 49.4 °F /  9.7 °C 29.77in /  1008hPa SW 10.0mph /  16.1km/h 19.0mph /  30.6km/h 86% 0.00in /  0mm
07:19 53.2 °F /  11.8 °C 49.1 °F /  9.5 °C 29.77in /  1008hPa SW 10.0mph /  16.1km/h 18.0mph /  29km/h 86% 0.00in /  0mm
07:24 52.8 °F /  11.6 °C 48.7 °F /  9.3 °C 29.77in /  1008hPa South 5.0mph /  8km/h 20.0mph /  32.2km/h 86% 0.00in /  0mm
07:29 52.8 °F /  11.6 °C 49.0 °F /  9.4 °C 29.77in /  1008hPa SSE 5.0mph /  8km/h 14.0mph /  22.5km/h 87% 0.00in /  0mm
07:34 52.8 °F /  11.6 °C 49.0 °F /  9.4 °C 29.77in /  1008hPa WSW 4.0mph /  6.4km/h 15.0mph /  24.1km/h 87% 0.00in /  0mm
07:39 52.8 °F /  11.6 °C 49.3 °F /  9.6 °C 29.78in /  1008.4hPa SSW 7.0mph /  11.3km/h 19.0mph /  30.6km/h 88% 0.00in /  0mm
07:44 53.2 °F /  11.8 °C 50.0 °F /  10 °C 29.78in /  1008.4hPa NW 18.0mph /  29km/h 21.0mph /  33.8km/h 89% 0.00in /  0mm
07:49 53.2 °F /  11.8 °C 50.0 °F /  10 °C 29.78in /  1008.4hPa WNW 13.0mph /  20.9km/h 19.0mph /  30.6km/h 89% 0.00in /  0mm
07:54 53.2 °F /  11.8 °C 50.0 °F /  10 °C 29.78in /  1008.4hPa West 7.0mph /  11.3km/h 19.0mph /  30.6km/h 89% 0.00in /  0mm
07:59 53.2 °F /  11.8 °C 50.3 °F /  10.2 °C 29.79in /  1008.7hPa WSW 9.0mph /  14.5km/h 17.0mph /  27.4km/h 90% 0.00in /  0mm
08:04 53.0 °F /  11.7 °C 49.8 °F /  9.9 °C 29.79in /  1008.7hPa WSW 10.0mph /  16.1km/h 19.0mph /  30.6km/h 89% 0.00in /  0mm
08:09 51.7 °F /  10.9 °C 48.3 °F /  9.1 °C 29.80in /  1009hPa WSW 10.0mph /  16.1km/h 19.0mph /  30.6km/h 88% 0.00in /  0mm
08:14 50.7 °F /  10.4 °C 47.9 °F /  8.8 °C 29.79in /  1008.7hPa West 9.0mph /  14.5km/h 18.0mph /  29km/h 90% 0.00in /  0mm
08:19 50.6 °F /  10.3 °C 48.1 °F /  8.9 °C 29.80in /  1009hPa WSW 9.0mph /  14.5km/h 17.0mph /  27.4km/h 91% 0.00in /  0mm
08:24 50.7 °F /  10.4 °C 48.5 °F /  9.2 °C 29.80in /  1009hPa WSW 8.0mph /  12.9km/h 18.0mph /  29km/h 92% 0.00in /  0mm
08:29 50.8 °F /  10.4 °C 48.6 °F /  9.2 °C 29.81in /  1009.4hPa WSW 7.0mph /  11.3km/h 18.0mph /  29km/h 92% 0.00in /  0mm
08:34 50.7 °F /  10.4 °C 48.5 °F /  9.2 °C 29.81in /  1009.4hPa SW 9.0mph /  14.5km/h 12.0mph /  19.3km/h 92% 0.00in /  0mm
08:39 50.2 °F /  10.1 °C 48.0 °F /  8.9 °C 29.82in /  1009.7hPa West 11.0mph /  17.7km/h 14.0mph /  22.5km/h 92% 0.00in /  0mm
08:44 49.6 °F /  9.8 °C 47.4 °F /  8.6 °C 29.81in /  1009.4hPa SW 9.0mph /  14.5km/h 12.0mph /  19.3km/h 92% 0.00in /  0mm
08:49 49.1 °F /  9.5 °C 46.9 °F /  8.3 °C 29.82in /  1009.7hPa WSW 5.0mph /  8km/h 11.0mph /  17.7km/h 92% 0.00in /  0mm
08:54 48.7 °F /  9.3 °C 46.5 °F /  8.1 °C 29.83in /  1010hPa WSW 7.0mph /  11.3km/h 10.0mph /  16.1km/h 92% 0.00in /  0mm
08:59 48.3 °F /  9.1 °C 46.4 °F /  8 °C 29.83in /  1010hPa West 4.0mph /  6.4km/h 11.0mph /  17.7km/h 93% 0.00in /  0mm
09:04 47.9 °F /  8.8 °C 46.0 °F /  7.8 °C 29.82in /  1009.7hPa West 7.0mph /  11.3km/h 12.0mph /  19.3km/h 93% 0.00in /  0mm
09:09 47.8 °F /  8.8 °C 45.9 °F /  7.7 °C 29.82in /  1009.7hPa WSW 6.0mph /  9.7km/h 12.0mph /  19.3km/h 93% 0.00in /  0mm
09:14 47.5 °F /  8.6 °C 45.6 °F /  7.6 °C 29.83in /  1010hPa WSW 5.0mph /  8km/h 9.0mph /  14.5km/h 93% 0.00in /  0mm
09:19 47.4 °F /  8.6 °C 45.5 °F /  7.5 °C 29.82in /  1009.7hPa SW 4.0mph /  6.4km/h 8.0mph /  12.9km/h 93% 0.00in /  0mm
09:24 47.3 °F /  8.5 °C 45.4 °F /  7.4 °C 29.83in /  1010hPa SW 4.0mph /  6.4km/h 6.0mph /  9.7km/h 93% 0.00in /  0mm
09:29 47.2 °F /  8.4 °C 45.6 °F /  7.6 °C 29.83in /  1010hPa SW 4.0mph /  6.4km/h 6.0mph /  9.7km/h 94% 0.00in /  0mm
09:34 46.7 °F /  8.2 °C 44.8 °F /  7.1 °C 29.83in /  1010hPa SSW 3.0mph /  4.8km/h 7.0mph /  11.3km/h 93% 0.00in /  0mm
09:39 45.8 °F /  7.7 °C 43.9 °F /  6.6 °C 29.83in /  1010hPa SSW 3.0mph /  4.8km/h 7.0mph /  11.3km/h 93% 0.00in /  0mm
09:44 45.3 °F /  7.4 °C 43.4 °F /  6.3 °C 29.84in /  1010.4hPa South 3.0mph /  4.8km/h 9.0mph /  14.5km/h 93% 0.00in /  0mm
09:49 44.5 °F /  6.9 °C 42.6 °F /  5.9 °C 29.85in /  1010.7hPa SW 4.0mph /  6.4km/h 8.0mph /  12.9km/h 93% 0.00in /  0mm
09:54 43.4 °F /  6.3 °C 41.5 °F /  5.3 °C 29.84in /  1010.4hPa South 3.0mph /  4.8km/h 7.0mph /  11.3km/h 93% 0.00in /  0mm
09:59 42.9 °F /  6.1 °C 41.0 °F /  5 °C 29.84in /  1010.4hPa SSE 3.0mph /  4.8km/h 6.0mph /  9.7km/h 93% 0.00in /  0mm
10:04 42.5 °F /  5.8 °C 40.9 °F /  4.9 °C 29.84in /  1010.4hPa SSW 4.0mph /  6.4km/h 7.0mph /  11.3km/h 94% 0.00in /  0mm
10:09 42.2 °F /  5.7 °C 40.6 °F /  4.8 °C 29.84in /  1010.4hPa South 1.0mph /  1.6km/h 7.0mph /  11.3km/h 94% 0.00in /  0mm
10:14 42.2 °F /  5.7 °C 40.6 °F /  4.8 °C 29.85in /  1010.7hPa SSW 4.0mph /  6.4km/h 8.0mph /  12.9km/h 94% 0.00in /  0mm
10:19 42.1 °F /  5.6 °C 40.5 °F /  4.7 °C 29.85in /  1010.7hPa SSW 4.0mph /  6.4km/h 9.0mph /  14.5km/h 94% 0.00in /  0mm
10:24 41.8 °F /  5.4 °C 40.2 °F /  4.6 °C 29.85in /  1010.7hPa SSW 5.0mph /  8km/h 9.0mph /  14.5km/h 94% 0.00in /  0mm
10:29 41.6 °F /  5.3 °C 40.0 °F /  4.4 °C 29.85in /  1010.7hPa SSW 4.0mph /  6.4km/h 9.0mph /  14.5km/h 94% 0.00in /  0mm
10:34 41.6 °F /  5.3 °C 40.0 °F /  4.4 °C 29.85in /  1010.7hPa SSW 4.0mph /  6.4km/h 8.0mph /  12.9km/h 94% 0.00in /  0mm
10:39 41.7 °F /  5.4 °C 40.4 °F /  4.7 °C 29.85in /  1010.7hPa SSW 4.0mph /  6.4km/h 8.0mph /  12.9km/h 95% 0.00in /  0mm
10:44 41.8 °F /  5.4 °C 40.5 °F /  4.7 °C 29.85in /  1010.7hPa SW 5.0mph /  8km/h 7.0mph /  11.3km/h 95% 0.00in /  0mm
10:49 41.9 °F /  5.5 °C 40.6 °F /  4.8 °C 29.85in /  1010.7hPa SSW 3.0mph /  4.8km/h 7.0mph /  11.3km/h 95% 0.00in /  0mm
10:54 42.2 °F /  5.7 °C 40.9 °F /  4.9 °C 29.84in /  1010.4hPa South 3.0mph /  4.8km/h 5.0mph /  8km/h 95% 0.00in /  0mm
10:59 42.4 °F /  5.8 °C 41.1 °F /  5.1 °C 29.85in /  1010.7hPa WSW 3.0mph /  4.8km/h 7.0mph /  11.3km/h 95% 0.00in /  0mm
11:04 42.7 °F /  5.9 °C 41.4 °F /  5.2 °C 29.85in /  1010.7hPa West 3.0mph /  4.8km/h 5.0mph /  8km/h 95% 0.00in /  0mm
11:09 42.9 °F /  6.1 °C 41.6 °F /  5.3 °C 29.84in /  1010.4hPa West 3.0mph /  4.8km/h 5.0mph /  8km/h 95% 0.00in /  0mm
11:14 43.1 °F /  6.2 °C 41.8 °F /  5.4 °C 29.84in /  1010.4hPa West 2.0mph /  3.2km/h 5.0mph /  8km/h 95% 0.00in /  0mm
11:19 43.2 °F /  6.2 °C 41.9 °F /  5.5 °C 29.84in /  1010.4hPa WSW 3.0mph /  4.8km/h 6.0mph /  9.7km/h 95% 0.00in /  0mm
11:24 43.3 °F /  6.3 °C 42.0 °F /  5.6 °C 29.84in /  1010.4hPa WSW 4.0mph /  6.4km/h 7.0mph /  11.3km/h 95% 0.00in /  0mm
11:29 43.4 °F /  6.3 °C 42.1 °F /  5.6 °C 29.83in /  1010hPa West 4.0mph /  6.4km/h 7.0mph /  11.3km/h 95% 0.00in /  0mm
11:34 43.5 °F /  6.4 °C 42.2 °F /  5.7 °C 29.83in /  1010hPa West 3.0mph /  4.8km/h 7.0mph /  11.3km/h 95% 0.00in /  0mm
11:39 43.6 °F /  6.4 °C 42.3 °F /  5.7 °C 29.82in /  1009.7hPa West 3.0mph /  4.8km/h 6.0mph /  9.7km/h 95% 0.00in /  0mm
11:44 43.6 °F /  6.4 °C 42.3 °F /  5.7 °C 29.82in /  1009.7hPa West 4.0mph /  6.4km/h 8.0mph /  12.9km/h 95% 0.00in /  0mm
11:49 43.5 °F /  6.4 °C 42.2 °F /  5.7 °C 29.83in /  1010hPa WSW 5.0mph /  8km/h 9.0mph /  14.5km/h 95% 0.00in /  0mm
11:54 43.4 °F /  6.3 °C 42.1 °F /  5.6 °C 29.83in /  1010hPa West 3.0mph /  4.8km/h 8.0mph /  12.9km/h 95% 0.00in /  0mm
11:59 43.4 °F /  6.3 °C 42.1 °F /  5.6 °C 29.83in /  1010hPa WNW 5.0mph /  8km/h 8.0mph /  12.9km/h 95% 0.00in /  0mm
12:04 43.4 °F /  6.3 °C 42.1 °F /  5.6 °C 29.83in /  1010hPa SW 6.0mph /  9.7km/h 7.0mph /  11.3km/h 95% 0.01in /  0.25mm
12:09 43.3 °F /  6.3 °C 42.0 °F /  5.6 °C 29.83in /  1010hPa WSW 5.0mph /  8km/h 9.0mph /  14.5km/h 95% 0.03in /  0.76mm
12:14 43.1 °F /  6.2 °C 41.8 °F /  5.4 °C 29.82in /  1009.7hPa WSW 8.0mph /  12.9km/h 8.0mph /  12.9km/h 95% 0.05in /  1.27mm
12:19 43.1 °F /  6.2 °C 41.8 °F /  5.4 °C 29.82in /  1009.7hPa SW 4.0mph /  6.4km/h 8.0mph /  12.9km/h 95% 0.08in /  2.03mm
12:24 43.1 °F /  6.2 °C 41.8 °F /  5.4 °C 29.82in /  1009.7hPa WSW 4.0mph /  6.4km/h 8.0mph /  12.9km/h 95% 0.10in /  2.54mm
12:29 43.0 °F /  6.1 °C 41.7 °F /  5.4 °C 29.83in /  1010hPa WSW 4.0mph /  6.4km/h 8.0mph /  12.9km/h 95% 0.13in /  3.3mm
12:34 42.9 °F /  6.1 °C 41.6 °F /  5.3 °C 29.83in /  1010hPa West 4.0mph /  6.4km/h 9.0mph /  14.5km/h 95% 0.16in /  4.06mm
12:39 42.7 °F /  5.9 °C 41.4 °F /  5.2 °C 29.83in /  1010hPa West 4.0mph /  6.4km/h 9.0mph /  14.5km/h 95% 0.18in /  4.57mm
12:44 42.6 °F /  5.9 °C 41.3 °F /  5.2 °C 29.83in /  1010hPa West 4.0mph /  6.4km/h 9.0mph /  14.5km/h 95% 0.21in /  5.33mm
12:49 42.7 °F /  5.9 °C 41.4 °F /  5.2 °C 29.84in /  1010.4hPa WNW 4.0mph /  6.4km/h 8.0mph /  12.9km/h 95% 0.23in /  5.84mm
12:54 42.5 °F /  5.8 °C 41.2 °F /  5.1 °C 29.84in /  1010.4hPa WNW 9.0mph /  14.5km/h 11.0mph /  17.7km/h 95% 0.24in /  6.1mm
12:59 42.0 °F /  5.6 °C 40.7 °F /  4.8 °C 29.84in /  1010.4hPa NW 3.0mph /  4.8km/h 11.0mph /  17.7km/h 95% 0.24in /  6.1mm
13:04 41.6 °F /  5.3 °C 40.3 °F /  4.6 °C 29.84in /  1010.4hPa NNW 5.0mph /  8km/h 10.0mph /  16.1km/h 95% 0.23in /  5.84mm
13:09 41.1 °F /  5.1 °C 39.8 °F /  4.3 °C 29.83in /  1010hPa North 3.0mph /  4.8km/h 7.0mph /  11.3km/h 95% 0.21in /  5.33mm
13:14 40.9 °F /  4.9 °C 39.6 °F /  4.2 °C 29.83in /  1010hPa NNE 4.0mph /  6.4km/h 9.0mph /  14.5km/h 95% 0.19in /  4.83mm
13:19 40.6 °F /  4.8 °C 39.3 °F /  4.1 °C 29.83in /  1010hPa NNE 2.0mph /  3.2km/h 8.0mph /  12.9km/h 95% 0.16in /  4.06mm
13:24 40.6 °F /  4.8 °C 39.3 °F /  4.1 °C 29.83in /  1010hPa NNW 1.0mph /  1.6km/h 5.0mph /  8km/h 95% 0.15in /  3.81mm
13:29 40.3 °F /  4.6 °C 38.7 °F /  3.7 °C 29.82in /  1009.7hPa North 3.0mph /  4.8km/h 5.0mph /  8km/h 94% 0.12in /  3.05mm
13:34 40.2 °F /  4.6 °C 38.6 °F /  3.7 °C 29.83in /  1010hPa North 2.0mph /  3.2km/h 5.0mph /  8km/h 94% 0.09in /  2.29mm
13:39 40.2 °F /  4.6 °C 38.6 °F /  3.7 °C 29.83in /  1010hPa North 1.0mph /  1.6km/h 4.0mph /  6.4km/h 94% 0.08in /  2.03mm
13:44 40.3 °F /  4.6 °C 39.0 °F /  3.9 °C 29.81in /  1009.4hPa SSE 1.0mph /  1.6km/h 5.0mph /  8km/h 95% 0.06in /  1.52mm
13:49 40.4 °F /  4.7 °C 39.1 °F /  3.9 °C 29.82in /  1009.7hPa ESE 2.0mph /  3.2km/h 5.0mph /  8km/h 95% 0.05in /  1.27mm
13:54 40.4 °F /  4.7 °C 39.1 °F /  3.9 °C 29.83in /  1010hPa ENE 1.0mph /  1.6km/h 2.0mph /  3.2km/h 95% 0.05in /  1.27mm
13:59 40.6 °F /  4.8 °C 39.3 °F /  4.1 °C 29.82in /  1009.7hPa SSE 1.0mph /  1.6km/h 3.0mph /  4.8km/h 95% 0.05in /  1.27mm
14:04 40.7 °F /  4.8 °C 39.1 °F /  3.9 °C 29.83in /  1010hPa SE 2.0mph /  3.2km/h 3.0mph /  4.8km/h 94% 0.05in /  1.27mm
14:09 40.8 °F /  4.9 °C 39.2 °F /  4 °C 29.84in /  1010.4hPa South 2.0mph /  3.2km/h 3.0mph /  4.8km/h 94% 0.05in /  1.27mm
14:14 40.9 °F /  4.9 °C 39.3 °F /  4.1 °C 29.83in /  1010hPa SSE 5.0mph /  8km/h 7.0mph /  11.3km/h 94% 0.05in /  1.27mm
14:19 41.1 °F /  5.1 °C 39.5 °F /  4.2 °C 29.85in /  1010.7hPa SE 2.0mph /  3.2km/h 7.0mph /  11.3km/h 94% 0.05in /  1.27mm
14:24 41.3 °F /  5.2 °C 39.7 °F /  4.3 °C 29.84in /  1010.4hPa SSW 2.0mph /  3.2km/h 7.0mph /  11.3km/h 94% 0.04in /  1.02mm
14:29 41.3 °F /  5.2 °C 39.7 °F /  4.3 °C 29.83in /  1010hPa SW 1.0mph /  1.6km/h 4.0mph /  6.4km/h 94% 0.04in /  1.02mm
14:34 41.6 °F /  5.3 °C 40.0 °F /  4.4 °C 29.84in /  1010.4hPa SSW 2.0mph /  3.2km/h 4.0mph /  6.4km/h 94% 0.04in /  1.02mm
14:39 41.9 °F /  5.5 °C 40.3 °F /  4.6 °C 29.84in /  1010.4hPa SW 1.0mph /  1.6km/h 3.0mph /  4.8km/h 94% 0.03in /  0.76mm
14:44 41.9 °F /  5.5 °C 40.3 °F /  4.6 °C 29.84in /  1010.4hPa Calm   2.0mph /  3.2km/h 94% 0.02in /  0.51mm
14:49 41.9 °F /  5.5 °C 40.3 °F /  4.6 °C 29.85in /  1010.7hPa Calm   2.0mph /  3.2km/h 94% 0.01in /  0.25mm
14:54 41.9 °F /  5.5 °C 40.3 °F /  4.6 °C 29.85in /  1010.7hPa Calm   3.0mph /  4.8km/h 94% 0.00in /  0mm
14:59 42.1 °F /  5.6 °C 40.5 °F /  4.7 °C 29.85in /  1010.7hPa SW 1.0mph /  1.6km/h 3.0mph /  4.8km/h 94% 0.00in /  0mm
15:04 42.1 °F /  5.6 °C 40.5 °F /  4.7 °C 29.85in /  1010.7hPa SSW 3.0mph /  4.8km/h 4.0mph /  6.4km/h 94% 0.00in /  0mm
15:09 42.3 °F /  5.7 °C 40.7 °F /  4.8 °C 29.86in /  1011.1hPa SSE 2.0mph /  3.2km/h 3.0mph /  4.8km/h 94% 0.00in /  0mm
15:14 42.5 °F /  5.8 °C 40.9 °F /  4.9 °C 29.85in /  1010.7hPa Calm   4.0mph /  6.4km/h 94% 0.00in /  0mm
15:19 42.6 °F /  5.9 °C 41.0 °F /  5 °C 29.87in /  1011.4hPa WSW 2.0mph /  3.2km/h 5.0mph /  8km/h 94% 0.00in /  0mm
15:24 42.7 °F /  5.9 °C 41.1 °F /  5.1 °C 29.87in /  1011.4hPa SW 3.0mph /  4.8km/h 5.0mph /  8km/h 94% 0.00in /  0mm
15:29 42.5 °F /  5.8 °C 40.9 °F /  4.9 °C 29.86in /  1011.1hPa SW 4.0mph /  6.4km/h 6.0mph /  9.7km/h 94% 0.00in /  0mm
15:34 42.3 °F /  5.7 °C 40.4 °F /  4.7 °C 29.89in /  1012.1hPa West 3.0mph /  4.8km/h 6.0mph /  9.7km/h 93% 0.00in /  0mm
15:39 41.8 °F /  5.4 °C 39.9 °F /  4.4 °C 29.89in /  1012.1hPa WSW 8.0mph /  12.9km/h 8.0mph /  12.9km/h 93% 0.00in /  0mm
15:44 41.3 °F /  5.2 °C 39.4 °F /  4.1 °C 29.89in /  1012.1hPa WSW 4.0mph /  6.4km/h 8.0mph /  12.9km/h 93% 0.00in /  0mm
15:49 41.2 °F /  5.1 °C 39.6 °F /  4.2 °C 29.89in /  1012.1hPa WSW 4.0mph /  6.4km/h 8.0mph /  12.9km/h 94% 0.00in /  0mm
15:54 40.9 °F /  4.9 °C 39.0 °F /  3.9 °C 29.88in /  1011.7hPa WSW 4.0mph /  6.4km/h 8.0mph /  12.9km/h 93% 0.00in /  0mm
15:59 40.3 °F /  4.6 °C 38.4 °F /  3.6 °C 29.89in /  1012.1hPa WSW 5.0mph /  8km/h 10.0mph /  16.1km/h 93% 0.00in /  0mm
16:04 40.0 °F /  4.4 °C 38.1 °F /  3.4 °C 29.91in /  1012.8hPa WSW 6.0mph /  9.7km/h 10.0mph /  16.1km/h 93% 0.00in /  0mm
16:09 39.9 °F /  4.4 °C 38.0 °F /  3.3 °C 29.91in /  1012.8hPa WSW 5.0mph /  8km/h 9.0mph /  14.5km/h 93% 0.00in /  0mm
16:14 39.8 °F /  4.3 °C 38.2 °F /  3.4 °C 29.91in /  1012.8hPa WSW 4.0mph /  6.4km/h 8.0mph /  12.9km/h 94% 0.00in /  0mm
16:24 39.5 °F /  4.2 °C 37.9 °F /  3.3 °C 29.92in /  1013.1hPa West 6.0mph /  9.7km/h 10.0mph /  16.1km/h 94% 0.00in /  0mm
16:29 39.3 °F /  4.1 °C 37.7 °F /  3.2 °C 29.92in /  1013.1hPa WSW 4.0mph /  6.4km/h 9.0mph /  14.5km/h 94% 0.00in /  0mm
16:34 39.2 °F /  4 °C 37.6 °F /  3.1 °C 29.93in /  1013.4hPa SW 7.0mph /  11.3km/h 12.0mph /  19.3km/h 94% 0.00in /  0mm
16:39 39.0 °F /  3.9 °C 37.4 °F /  3 °C 29.93in /  1013.4hPa West 5.0mph /  8km/h 9.0mph /  14.5km/h 94% 0.00in /  0mm
16:44 38.8 °F /  3.8 °C 37.2 °F /  2.9 °C 29.94in /  1013.8hPa SW 8.0mph /  12.9km/h 10.0mph /  16.1km/h 94% 0.00in /  0mm
16:49 38.7 °F /  3.7 °C 37.1 °F /  2.8 °C 29.94in /  1013.8hPa WSW 5.0mph /  8km/h 10.0mph /  16.1km/h 94% 0.00in /  0mm
16:54 38.6 °F /  3.7 °C 37.0 °F /  2.8 °C 29.95in /  1014.1hPa WSW 5.0mph /  8km/h 10.0mph /  16.1km/h 94% 0.00in /  0mm
16:59 38.6 °F /  3.7 °C 37.0 °F /  2.8 °C 29.96in /  1014.4hPa WSW 5.0mph /  8km/h 10.0mph /  16.1km/h 94% 0.00in /  0mm
17:04 38.6 °F /  3.7 °C 37.0 °F /  2.8 °C 29.97in /  1014.8hPa WSW 5.0mph /  8km/h 9.0mph /  14.5km/h 94% 0.00in /  0mm
17:09 38.5 °F /  3.6 °C 36.9 °F /  2.7 °C 29.96in /  1014.4hPa WSW 5.0mph /  8km/h 10.0mph /  16.1km/h 94% 0.00in /  0mm
17:14 38.4 °F /  3.6 °C 36.8 °F /  2.7 °C 29.96in /  1014.4hPa WSW 5.0mph /  8km/h 10.0mph /  16.1km/h 94% 0.00in /  0mm
17:19 38.4 °F /  3.6 °C 36.8 °F /  2.7 °C 29.98in /  1015.1hPa WSW 5.0mph /  8km/h 9.0mph /  14.5km/h 94% 0.00in /  0mm
17:24 38.3 °F /  3.5 °C 36.7 °F /  2.6 °C 29.98in /  1015.1hPa SW 4.0mph /  6.4km/h 8.0mph /  12.9km/h 94% 0.00in /  0mm
17:29 38.2 °F /  3.4 °C 36.6 °F /  2.6 °C 29.99in /  1015.5hPa West 4.0mph /  6.4km/h 9.0mph /  14.5km/h 94% 0.00in /  0mm
17:34 38.2 °F /  3.4 °C 36.9 °F /  2.7 °C 29.98in /  1015.1hPa SW 4.0mph /  6.4km/h 8.0mph /  12.9km/h 95% 0.00in /  0mm
17:39 38.1 °F /  3.4 °C 36.8 °F /  2.7 °C 29.99in /  1015.5hPa West 4.0mph /  6.4km/h 11.0mph /  17.7km/h 95% 0.00in /  0mm
17:44 38.2 °F /  3.4 °C 36.9 °F /  2.7 °C 30.00in /  1015.8hPa SW 6.0mph /  9.7km/h 10.0mph /  16.1km/h 95% 0.00in /  0mm
17:49 38.3 °F /  3.5 °C 36.7 °F /  2.6 °C 30.00in /  1015.8hPa WSW 3.0mph /  4.8km/h 8.0mph /  12.9km/h 94% 0.00in /  0mm
17:54 38.4 °F /  3.6 °C 36.8 °F /  2.7 °C 30.01in /  1016.1hPa WSW 5.0mph /  8km/h 9.0mph /  14.5km/h 94% 0.00in /  0mm
17:59 38.5 °F /  3.6 °C 36.9 °F /  2.7 °C 30.01in /  1016.1hPa WSW 5.0mph /  8km/h 9.0mph /  14.5km/h 94% 0.00in /  0mm
18:04 38.5 °F /  3.6 °C 36.9 °F /  2.7 °C 30.01in /  1016.1hPa WSW 5.0mph /  8km/h 10.0mph /  16.1km/h 94% 0.00in /  0mm
18:09 38.6 °F /  3.7 °C 37.0 °F /  2.8 °C 30.01in /  1016.1hPa WSW 5.0mph /  8km/h 10.0mph /  16.1km/h 94% 0.00in /  0mm
18:14 38.5 °F /  3.6 °C 36.9 °F /  2.7 °C 30.02in /  1016.5hPa WSW 5.0mph /  8km/h 11.0mph /  17.7km/h 94% 0.00in /  0mm
18:19 38.5 °F /  3.6 °C 36.7 °F /  2.6 °C 30.03in /  1016.8hPa WSW 5.0mph /  8km/h 12.0mph /  19.3km/h 93% 0.00in /  0mm
18:24 38.4 °F /  3.6 °C 36.6 °F /  2.6 °C 30.04in /  1017.2hPa West 4.0mph /  6.4km/h 8.0mph /  12.9km/h 93% 0.00in /  0mm
18:29 38.3 °F /  3.5 °C 36.5 °F /  2.5 °C 30.04in /  1017.2hPa WSW 5.0mph /  8km/h 10.0mph /  16.1km/h 93% 0.00in /  0mm
18:34 38.0 °F /  3.3 °C 36.2 °F /  2.3 °C 30.04in /  1017.2hPa WSW 6.0mph /  9.7km/h 9.0mph /  14.5km/h 93% 0.00in /  0mm
18:39 37.9 °F /  3.3 °C 35.8 °F /  2.1 °C 30.05in /  1017.5hPa West 7.0mph /  11.3km/h 11.0mph /  17.7km/h 92% 0.00in /  0mm
18:44 37.7 °F /  3.2 °C 35.9 °F /  2.2 °C 30.05in /  1017.5hPa SSW 4.0mph /  6.4km/h 11.0mph /  17.7km/h 93% 0.00in /  0mm
18:49 37.6 °F /  3.1 °C 35.5 °F /  1.9 °C 30.06in /  1017.8hPa West 7.0mph /  11.3km/h 13.0mph /  20.9km/h 92% 0.00in /  0mm
18:54 37.5 °F /  3.1 °C 35.4 °F /  1.9 °C 30.06in /  1017.8hPa West 5.0mph /  8km/h 12.0mph /  19.3km/h 92% 0.00in /  0mm
18:59 37.3 °F /  2.9 °C 35.2 °F /  1.8 °C 30.07in /  1018.2hPa WSW 7.0mph /  11.3km/h 13.0mph /  20.9km/h 92% 0.00in /  0mm
19:04 37.1 °F /  2.8 °C 35.0 °F /  1.7 °C 30.07in /  1018.2hPa West 7.0mph /  11.3km/h 11.0mph /  17.7km/h 92% 0.00in /  0mm
19:09 37.1 °F /  2.8 °C 35.0 °F /  1.7 °C 30.07in /  1018.2hPa WSW 6.0mph /  9.7km/h 14.0mph /  22.5km/h 92% 0.00in /  0mm
19:14 37.1 °F /  2.8 °C 35.0 °F /  1.7 °C 30.08in /  1018.5hPa WSW 6.0mph /  9.7km/h 14.0mph /  22.5km/h 92% 0.00in /  0mm
19:19 36.9 °F /  2.7 °C 34.8 °F /  1.6 °C 30.09in /  1018.8hPa WSW 6.0mph /  9.7km/h 13.0mph /  20.9km/h 92% 0.00in /  0mm
19:24 36.8 °F /  2.7 °C 34.7 °F /  1.5 °C 30.09in /  1018.8hPa WSW 6.0mph /  9.7km/h 13.0mph /  20.9km/h 92% 0.00in /  0mm
19:29 36.7 °F /  2.6 °C 34.6 °F /  1.4 °C 30.09in /  1018.8hPa West 9.0mph /  14.5km/h 12.0mph /  19.3km/h 92% 0.00in /  0mm
19:34 36.5 °F /  2.5 °C 34.4 °F /  1.3 °C 30.10in /  1019.2hPa SW 4.0mph /  6.4km/h 11.0mph /  17.7km/h 92% 0.00in /  0mm
19:39 36.5 °F /  2.5 °C 34.4 °F /  1.3 °C 30.10in /  1019.2hPa WSW 7.0mph /  11.3km/h 12.0mph /  19.3km/h 92% 0.00in /  0mm
19:44 36.5 °F /  2.5 °C 34.4 °F /  1.3 °C 30.10in /  1019.2hPa West 6.0mph /  9.7km/h 8.0mph /  12.9km/h 92% 0.00in /  0mm
19:49 36.5 °F /  2.5 °C 34.4 °F /  1.3 °C 30.11in /  1019.5hPa WSW 5.0mph /  8km/h 9.0mph /  14.5km/h 92% 0.00in /  0mm
19:54 36.6 °F /  2.6 °C 34.5 °F /  1.4 °C 30.11in /  1019.5hPa WSW 5.0mph /  8km/h 10.0mph /  16.1km/h 92% 0.00in /  0mm
19:59 36.7 °F /  2.6 °C 34.6 °F /  1.4 °C 30.12in /  1019.9hPa West 7.0mph /  11.3km/h 10.0mph /  16.1km/h 92% 0.00in /  0mm
20:04 36.7 °F /  2.6 °C 34.3 °F /  1.3 °C 30.13in /  1020.2hPa WSW 5.0mph /  8km/h 10.0mph /  16.1km/h 91% 0.00in /  0mm
20:09 36.7 °F /  2.6 °C 34.3 °F /  1.3 °C 30.13in /  1020.2hPa WSW 5.0mph /  8km/h 10.0mph /  16.1km/h 91% 0.00in /  0mm
20:14 36.7 °F /  2.6 °C 34.3 °F /  1.3 °C 30.13in /  1020.2hPa WSW 5.0mph /  8km/h 10.0mph /  16.1km/h 91% 0.00in /  0mm
20:19 36.7 °F /  2.6 °C 34.3 °F /  1.3 °C 30.14in /  1020.5hPa WSW 5.0mph /  8km/h 10.0mph /  16.1km/h 91% 0.00in /  0mm
20:24 36.7 °F /  2.6 °C 34.0 °F /  1.1 °C 30.15in /  1020.9hPa West 5.0mph /  8km/h 10.0mph /  16.1km/h 90% 0.00in /  0mm
20:29 36.7 °F /  2.6 °C 34.0 °F /  1.1 °C 30.15in /  1020.9hPa West 5.0mph /  8km/h 10.0mph /  16.1km/h 90% 0.00in /  0mm
20:34 36.6 °F /  2.6 °C 33.7 °F /  0.9 °C 30.15in /  1020.9hPa West 5.0mph /  8km/h 12.0mph /  19.3km/h 89% 0.00in /  0mm
20:39 36.6 °F /  2.6 °C 33.7 °F /  0.9 °C 30.16in /  1021.2hPa WSW 5.0mph /  8km/h 13.0mph /  20.9km/h 89% 0.00in /  0mm
20:44 36.4 °F /  2.4 °C 33.5 °F /  0.8 °C 30.16in /  1021.2hPa WSW 9.0mph /  14.5km/h 12.0mph /  19.3km/h 89% 0.00in /  0mm
20:49 36.3 °F /  2.4 °C 33.1 °F /  0.6 °C 30.16in /  1021.2hPa West 7.0mph /  11.3km/h 13.0mph /  20.9km/h 88% 0.00in /  0mm
20:54 36.1 °F /  2.3 °C 32.9 °F /  0.5 °C 30.16in /  1021.2hPa WNW 8.0mph /  12.9km/h 12.0mph /  19.3km/h 88% 0.00in /  0mm
20:59 36.0 °F /  2.2 °C 32.5 °F /  0.3 °C 30.17in /  1021.6hPa West 13.0mph /  20.9km/h 13.0mph /  20.9km/h 87% 0.00in /  0mm
21:04 35.9 °F /  2.2 °C 32.4 °F /  0.2 °C 30.17in /  1021.6hPa WNW 4.0mph /  6.4km/h 18.0mph /  29km/h 87% 0.00in /  0mm
21:09 35.8 °F /  2.1 °C 32.6 °F /  0.3 °C 30.18in /  1021.9hPa West 7.0mph /  11.3km/h 18.0mph /  29km/h 88% 0.00in /  0mm
21:14 35.7 °F /  2.1 °C 32.5 °F /  0.3 °C 30.18in /  1021.9hPa WSW 12.0mph /  19.3km/h 12.0mph /  19.3km/h 88% 0.00in /  0mm
21:19 35.6 °F /  2 °C 32.1 °F /  0.1 °C 30.19in /  1022.2hPa West 6.0mph /  9.7km/h 12.0mph /  19.3km/h 87% 0.00in /  0mm
21:24 35.5 °F /  1.9 °C 32.0 °F /  0 °C 30.19in /  1022.2hPa West 6.0mph /  9.7km/h 12.0mph /  19.3km/h 87% 0.00in /  0mm
21:29 35.3 °F /  1.8 °C 31.8 °F /  -0.1 °C 30.19in /  1022.2hPa West 6.0mph /  9.7km/h 14.0mph /  22.5km/h 87% 0.00in /  0mm
21:34 35.1 °F /  1.7 °C 31.6 °F /  -0.2 °C 30.20in /  1022.6hPa West 6.0mph /  9.7km/h 14.0mph /  22.5km/h 87% 0.00in /  0mm
21:39 35.0 °F /  1.7 °C 31.8 °F /  -0.1 °C 30.20in /  1022.6hPa WSW 4.0mph /  6.4km/h 11.0mph /  17.7km/h 88% 0.00in /  0mm
21:44 34.8 °F /  1.6 °C 31.6 °F /  -0.2 °C 30.20in /  1022.6hPa West 6.0mph /  9.7km/h 13.0mph /  20.9km/h 88% 0.00in /  0mm
21:49 34.7 °F /  1.5 °C 31.5 °F /  -0.3 °C 30.21in /  1022.9hPa West 6.0mph /  9.7km/h 13.0mph /  20.9km/h 88% 0.00in /  0mm
21:54 34.7 °F /  1.5 °C 31.5 °F /  -0.3 °C 30.21in /  1022.9hPa WSW 4.0mph /  6.4km/h 11.0mph /  17.7km/h 88% 0.00in /  0mm
21:59 34.6 °F /  1.4 °C 31.4 °F /  -0.3 °C 30.22in /  1023.2hPa WSW 6.0mph /  9.7km/h 13.0mph /  20.9km/h 88% 0.00in /  0mm
22:04 34.6 °F /  1.4 °C 31.4 °F /  -0.3 °C 30.22in /  1023.2hPa West 5.0mph /  8km/h 12.0mph /  19.3km/h 88% 0.00in /  0mm
22:09 34.5 °F /  1.4 °C 31.0 °F /  -0.6 °C 30.21in /  1022.9hPa SW 5.0mph /  8km/h 12.0mph /  19.3km/h 87% 0.00in /  0mm
22:14 34.4 °F /  1.3 °C 30.6 °F /  -0.8 °C 30.22in /  1023.2hPa West 7.0mph /  11.3km/h 15.0mph /  24.1km/h 86% 0.00in /  0mm
22:19 34.2 °F /  1.2 °C 30.2 °F /  -1 °C 30.22in /  1023.2hPa West 7.0mph /  11.3km/h 15.0mph /  24.1km/h 85% 0.00in /  0mm
22:24 34.1 °F /  1.2 °C 30.1 °F /  -1.1 °C 30.22in /  1023.2hPa West 7.0mph /  11.3km/h 15.0mph /  24.1km/h 85% 0.00in /  0mm
22:29 34.0 °F /  1.1 °C 30.0 °F /  -1.1 °C 30.22in /  1023.2hPa West 7.0mph /  11.3km/h 16.0mph /  25.7km/h 85% 0.00in /  0mm
22:34 33.9 °F /  1.1 °C 29.9 °F /  -1.2 °C 30.22in /  1023.2hPa West 7.0mph /  11.3km/h 16.0mph /  25.7km/h 85% 0.00in /  0mm
22:39 33.8 °F /  1 °C 29.8 °F /  -1.2 °C 30.22in /  1023.2hPa West 6.0mph /  9.7km/h 15.0mph /  24.1km/h 85% 0.00in /  0mm
22:44 33.8 °F /  1 °C 29.8 °F /  -1.2 °C 30.22in /  1023.2hPa West 12.0mph /  19.3km/h 12.0mph /  19.3km/h 85% 0.00in /  0mm
22:49 33.7 °F /  0.9 °C 29.7 °F /  -1.3 °C 30.23in /  1023.6hPa SW 5.0mph /  8km/h 14.0mph /  22.5km/h 85% 0.00in /  0mm
22:54 33.7 °F /  0.9 °C 29.7 °F /  -1.3 °C 30.24in /  1023.9hPa West 4.0mph /  6.4km/h 13.0mph /  20.9km/h 85% 0.00in /  0mm
22:59 33.6 °F /  0.9 °C 29.6 °F /  -1.3 °C 30.24in /  1023.9hPa West 6.0mph /  9.7km/h 10.0mph /  16.1km/h 85% 0.00in /  0mm
23:04 33.6 °F /  0.9 °C 29.6 °F /  -1.3 °C 30.24in /  1023.9hPa West 11.0mph /  17.7km/h 13.0mph /  20.9km/h 85% 0.00in /  0mm
23:09 33.5 °F /  0.8 °C 29.8 °F /  -1.2 °C 30.24in /  1023.9hPa West 10.0mph /  16.1km/h 16.0mph /  25.7km/h 86% 0.00in /  0mm
23:14 33.5 °F /  0.8 °C 29.8 °F /  -1.2 °C 30.25in /  1024.3hPa West 9.0mph /  14.5km/h 14.0mph /  22.5km/h 86% 0.00in /  0mm
23:19 33.4 °F /  0.8 °C 29.7 °F /  -1.3 °C 30.25in /  1024.3hPa WSW 8.0mph /  12.9km/h 15.0mph /  24.1km/h 86% 0.00in /  0mm
23:24 33.4 °F /  0.8 °C 29.7 °F /  -1.3 °C 30.25in /  1024.3hPa WSW 8.0mph /  12.9km/h 15.0mph /  24.1km/h 86% 0.00in /  0mm
23:29 33.3 °F /  0.7 °C 29.6 °F /  -1.3 °C 30.25in /  1024.3hPa WSW 8.0mph /  12.9km/h 14.0mph /  22.5km/h 86% 0.00in /  0mm
23:34 33.3 °F /  0.7 °C 29.6 °F /  -1.3 °C 30.26in /  1024.6hPa WSW 7.0mph /  11.3km/h 14.0mph /  22.5km/h 86% 0.00in /  0mm
23:39 33.3 °F /  0.7 °C 29.6 °F /  -1.3 °C 30.26in /  1024.6hPa WSW 6.0mph /  9.7km/h 12.0mph /  19.3km/h 86% 0.00in /  0mm
23:44 33.2 °F /  0.7 °C 29.5 °F /  -1.4 °C 30.26in /  1024.6hPa West 8.0mph /  12.9km/h 16.0mph /  25.7km/h 86% 0.00in /  0mm
23:49 33.2 °F /  0.7 °C 29.5 °F /  -1.4 °C 30.26in /  1024.6hPa West 6.0mph /  9.7km/h 13.0mph /  20.9km/h 86% 0.00in /  0mm
23:54 33.2 °F /  0.7 °C 29.5 °F /  -1.4 °C 30.26in /  1024.6hPa WSW 6.0mph /  9.7km/h 13.0mph /  20.9km/h 86% 0.00in /  0mm
23:59 33.1 °F /  0.6 °C 29.1 °F /  -1.6 °C 30.26in /  1024.6hPa West 7.0mph /  11.3km/h 15.0mph /  24.1km/h 85% 0.00in /  0mm
Buffalo, New York, USA
Compliments of Weather Underground - 2.5 mb